Time;durP1;ratioP1;P1;durP2;ratioP2;P2;SDS_P1;SDS_P2;PMS_P1;PMS_P2;Temp;Humidity;BMP_temperature;BMP_pressure;BME280_temperature;BME280_humidity;BME280_pressure;Samples;Min_cycle;Max_cycle;Signal;HPM_P1;HPM_P2
2022/07/20 00:01:18;;;;;;;10.07;4.55;;;;;;;19.74;49.15;97320.22;4986420;28;20054;-57
2022/07/20 00:03:45;;;;;;;7.15;4.40;;;;;;;19.85;48.70;97326.25;4986876;28;20050;-52
2022/07/20 00:06:13;;;;;;;7.78;4.28;;;;;;;19.82;48.88;97324.13;4985898;28;20081;-54
2022/07/20 00:11:25;;;;;;;6.75;4.63;;;;;;;19.52;49.85;97325.69;4986692;28;20061;-57
2022/07/20 00:13:55;;;;;;;9.45;4.45;;;;;;;19.38;50.83;97328.53;4986935;28;20050;-56
2022/07/20 00:16:23;;;;;;;8.45;4.10;;;;;;;19.29;50.94;97328.44;4986423;28;20046;-53
2022/07/20 00:18:50;;;;;;;10.60;5.07;;;;;;;19.24;51.07;97321.16;4986242;28;20445;-56
2022/07/20 00:21:17;;;;;;;8.57;4.57;;;;;;;18.99;52.02;97331.56;4986255;28;20062;-52
2022/07/20 00:23:44;;;;;;;8.50;4.63;;;;;;;18.92;52.30;97326.50;4986245;28;20046;-55
2022/07/20 00:26:11;;;;;;;8.88;4.50;;;;;;;18.78;52.51;97329.25;4986486;28;20046;-57
2022/07/20 00:28:37;;;;;;;10.13;5.75;;;;;;;18.41;54.57;97328.38;4987022;28;20046;-53
2022/07/20 00:31:04;;;;;;;8.15;4.60;;;;;;;18.09;55.74;97328.13;4985624;28;20057;-49
2022/07/20 00:33:31;;;;;;;11.60;5.38;;;;;;;18.01;55.62;97326.88;4989061;28;20046;-57
2022/07/20 00:35:58;;;;;;;9.05;5.10;;;;;;;18.17;54.55;97332.13;4990353;28;20573;-55
2022/07/20 00:38:24;;;;;;;10.35;4.93;;;;;;;18.22;54.80;97328.47;4988648;28;20085;-52
2022/07/20 00:40:51;;;;;;;9.43;4.88;;;;;;;18.24;54.36;97329.78;4990286;28;20042;-53
2022/07/20 00:43:18;;;;;;;9.80;4.65;;;;;;;18.36;54.04;97328.47;4989767;28;20046;-51
2022/07/20 00:45:45;;;;;;;7.85;4.68;;;;;;;18.23;54.64;97325.41;4989734;28;20046;-55
2022/07/20 00:48:12;;;;;;;7.15;5.28;;;;;;;18.15;54.96;97323.38;4990404;28;20161;-52
2022/07/20 00:50:39;;;;;;;10.95;5.70;;;;;;;18.21;54.46;97324.91;4989456;28;20054;-52
2022/07/20 00:53:06;;;;;;;9.35;5.28;;;;;;;18.17;54.99;97329.38;4990162;28;20043;-55
2022/07/20 00:55:34;;;;;;;9.23;5.50;;;;;;;18.19;54.65;97324.41;4990100;28;20495;-54
2022/07/20 00:58:01;;;;;;;11.30;5.32;;;;;;;18.32;53.88;97325.53;4989510;28;20046;-57
2022/07/20 01:00:28;;;;;;;8.75;5.03;;;;;;;18.44;53.66;97325.03;4989563;28;20092;-59
2022/07/20 01:02:54;;;;;;;7.53;4.72;;;;;;;18.48;53.62;97323.28;4989634;28;20324;-59
2022/07/20 01:05:21;;;;;;;10.00;4.07;;;;;;;18.50;53.49;97321.03;4988749;28;20046;-56
2022/07/20 01:07:48;;;;;;;9.90;5.07;;;;;;;18.64;52.49;97325.72;4989487;28;20502;-58
2022/07/20 01:10:16;;;;;;;8.55;5.05;;;;;;;18.14;55.06;97319.81;4988409;28;20034;-57
2022/07/20 01:12:45;;;;;;;8.20;4.50;;;;;;;17.84;56.10;97321.97;4989381;28;20425;-57
2022/07/20 01:15:12;;;;;;;8.15;4.97;;;;;;;17.91;55.80;97321.59;4987583;28;20054;-56
2022/07/20 01:17:38;;;;;;;12.30;5.35;;;;;;;17.89;55.64;97315.59;4984323;28;20314;-58
2022/07/20 01:20:15;;;;;;;8.70;5.32;;;;;;;18.06;54.81;97324.03;4989380;28;20042;-57
2022/07/20 01:22:43;;;;;;;11.07;5.18;;;;;;;18.14;54.78;97319.03;4988962;28;20089;-56
2022/07/20 01:25:10;;;;;;;9.50;5.65;;;;;;;18.13;54.55;97318.19;4990140;28;20057;-56
2022/07/20 01:27:36;;;;;;;9.00;5.40;;;;;;;18.07;54.91;97320.19;4988476;28;20105;-55
2022/07/20 01:30:04;;;;;;;8.25;5.28;;;;;;;17.78;56.32;97313.06;4989474;28;20545;-56
2022/07/20 01:32:30;;;;;;;8.57;5.18;;;;;;;17.85;56.29;97317.31;4989612;28;20501;-57
2022/07/20 01:34:57;;;;;;;9.45;5.10;;;;;;;17.83;56.45;97317.63;4989048;28;20538;-54
2022/07/20 01:37:23;;;;;;;9.10;4.95;;;;;;;17.57;57.44;97322.75;4988950;28;20049;-58
2022/07/20 01:39:51;;;;;;;9.15;5.30;;;;;;;17.50;57.35;97323.91;4988994;28;20104;-54
2022/07/20 01:42:17;;;;;;;9.75;5.57;;;;;;;17.69;56.87;97314.84;4989030;28;20505;-56
2022/07/20 01:44:44;;;;;;;10.18;5.13;;;;;;;17.86;56.19;97308.81;4988030;28;20054;-52
2022/07/20 01:47:10;;;;;;;8.93;5.35;;;;;;;17.88;55.98;97308.50;4987539;28;20498;-55
2022/07/20 01:49:37;;;;;;;8.93;5.15;;;;;;;17.61;57.09;97310.88;4988853;28;20096;-56
2022/07/20 01:52:04;;;;;;;8.70;4.95;;;;;;;17.56;57.38;97310.97;4988667;28;20213;-55
2022/07/20 01:54:30;;;;;;;14.07;6.28;;;;;;;17.50;58.16;97309.41;4986681;28;20465;-54
2022/07/20 01:56:57;;;;;;;17.17;4.95;;;;;;;17.49;58.03;97314.09;4991409;28;20465;-49
2022/07/20 01:59:23;;;;;;;9.32;5.45;;;;;;;17.42;58.33;97309.00;4985749;28;20073;-52
2022/07/20 02:01:51;;;;;;;14.93;5.53;;;;;;;17.51;57.94;97308.31;4979818;28;20410;-51
2022/07/20 02:04:17;;;;;;;8.02;4.70;;;;;;;17.36;58.45;97309.38;4988251;28;20049;-58
2022/07/20 02:06:44;;;;;;;9.65;5.05;;;;;;;17.01;60.04;97304.13;4987313;28;20050;-57
2022/07/20 02:09:10;;;;;;;9.95;4.95;;;;;;;17.08;59.45;97310.06;4988253;28;20097;-54
2022/07/20 02:11:37;;;;;;;11.02;5.38;;;;;;;17.24;58.80;97315.28;4988232;28;20104;-54
2022/07/20 02:14:03;;;;;;;10.00;5.60;;;;;;;17.46;58.33;97317.41;4988543;28;20054;-56
2022/07/20 02:16:30;;;;;;;10.32;5.15;;;;;;;17.74;57.42;97317.50;4988022;28;20042;-56
2022/07/20 02:18:56;;;;;;;9.63;5.38;;;;;;;17.85;57.11;97311.84;4986830;28;20394;-58
2022/07/20 02:21:24;;;;;;;9.65;5.03;;;;;;;17.84;57.09;97312.97;4988802;28;20042;-57
2022/07/20 02:23:51;;;;;;;8.40;5.22;;;;;;;17.72;57.48;97313.44;4987771;28;20072;-55
2022/07/20 02:26:18;;;;;;;11.93;5.50;;;;;;;17.62;58.02;97314.44;4988427;28;20046;-59
2022/07/20 02:28:45;;;;;;;9.75;4.80;;;;;;;17.45;58.63;97314.97;4988457;28;20092;-57
2022/07/20 02:31:12;;;;;;;9.57;5.72;;;;;;;17.26;59.62;97316.63;4987956;28;20043;-58
2022/07/20 02:33:39;;;;;;;9.98;4.80;;;;;;;17.21;59.59;97321.38;4988506;28;20046;-54
2022/07/20 02:36:06;;;;;;;8.07;5.45;;;;;;;17.18;59.83;97314.56;4987989;28;20457;-51
2022/07/20 02:38:33;;;;;;;7.88;5.07;;;;;;;17.16;59.84;97316.78;4984338;28;20259;-56
2022/07/20 02:40:59;;;;;;;14.82;5.63;;;;;;;17.34;59.33;97317.88;4988608;28;20082;-56
2022/07/20 02:43:26;;;;;;;9.13;5.05;;;;;;;17.46;58.81;97324.84;4987742;28;20050;-52
2022/07/20 02:45:52;;;;;;;6.32;4.32;;;;;;;17.49;58.66;97319.56;4987958;28;20042;-59
2022/07/20 02:48:19;;;;;;;10.32;5.35;;;;;;;17.26;59.81;97321.28;4987278;28;20050;-56
2022/07/20 02:50:45;;;;;;;9.30;5.60;;;;;;;17.24;59.98;97313.38;4987659;28;20564;-53
2022/07/20 02:53:13;;;;;;;9.10;5.50;;;;;;;17.19;60.25;97318.09;4988034;28;20042;-55
2022/07/20 02:55:41;;;;;;;10.23;5.32;;;;;;;17.01;61.15;97313.13;4987160;28;20038;-54
2022/07/20 02:58:08;;;;;;;11.43;4.75;;;;;;;16.91;61.48;97307.81;4988121;28;20046;-52
2022/07/20 03:00:35;;;;;;;7.13;5.18;;;;;;;16.81;61.90;97310.69;4987219;28;20058;-59
2022/07/20 03:03:03;;;;;;;8.65;5.32;;;;;;;16.70;62.55;97307.28;4987853;28;20038;-52
2022/07/20 03:05:30;;;;;;;7.93;4.90;;;;;;;16.67;62.50;97305.94;4987741;28;20042;-51
2022/07/20 03:07:56;;;;;;;10.23;5.20;;;;;;;16.62;62.70;97306.03;4987566;28;20057;-57
2022/07/20 03:10:23;;;;;;;9.77;5.15;;;;;;;16.74;62.36;97311.84;4987404;28;20035;-53
2022/07/20 03:12:50;;;;;;;9.32;4.93;;;;;;;16.50;63.88;97306.44;4987283;28;20053;-56
2022/07/20 03:15:16;;;;;;;11.70;5.20;;;;;;;16.32;63.65;97313.47;4987797;28;20057;-56
2022/07/20 03:17:45;;;;;;;8.35;5.07;;;;;;;16.48;63.35;97308.66;4987480;28;20050;-51
2022/07/20 03:20:22;;;;;;;8.48;4.80;;;;;;;16.51;62.87;97306.13;4986840;28;20109;-56
2022/07/20 03:22:49;;;;;;;9.07;4.70;;;;;;;16.17;64.87;97306.25;4987362;28;20524;-53
2022/07/20 03:25:16;;;;;;;8.95;5.30;;;;;;;16.07;65.51;97309.94;4987651;28;20045;-59
2022/07/20 03:27:43;;;;;;;8.70;5.65;;;;;;;16.28;63.92;97310.50;4986907;28;20046;-57
2022/07/20 03:30:10;;;;;;;8.23;4.63;;;;;;;16.22;64.60;97317.94;4987305;28;20100;-57
2022/07/20 03:32:37;;;;;;;9.32;4.88;;;;;;;16.25;64.43;97311.09;4986820;28;20053;-59
2022/07/20 03:35:04;;;;;;;9.25;4.40;;;;;;;16.23;64.56;97322.34;4987911;28;20305;-56
2022/07/20 03:37:31;;;;;;;12.32;6.38;;;;;;;16.23;64.62;97318.78;4982825;28;20039;-57
2022/07/20 03:39:57;;;;;;;8.10;5.20;;;;;;;16.27;64.60;97316.25;4984455;28;20046;-56
2022/07/20 03:42:24;;;;;;;14.25;5.78;;;;;;;16.23;64.60;97316.03;4984155;28;20046;-55
2022/07/20 03:44:50;;;;;;;11.32;5.47;;;;;;;16.18;64.96;97316.91;4983806;28;20058;-57
2022/07/20 03:47:17;;;;;;;7.68;4.35;;;;;;;16.31;64.48;97317.31;4985081;28;20098;-50
2022/07/20 03:49:43;;;;;;;9.75;5.43;;;;;;;16.27;64.68;97319.00;4984417;28;20509;-53
2022/07/20 03:52:10;;;;;;;10.90;6.05;;;;;;;16.29;64.47;97317.59;4984367;28;20046;-58
2022/07/20 03:54:37;;;;;;;7.95;4.82;;;;;;;16.07;65.58;97313.47;4984560;28;20042;-54
2022/07/20 03:57:04;;;;;;;9.75;5.57;;;;;;;15.96;66.08;97310.03;4984339;28;20069;-54
2022/07/20 03:59:32;;;;;;;9.15;5.05;;;;;;;16.09;65.69;97305.81;4984864;28;20463;-55
2022/07/20 04:01:58;;;;;;;9.20;4.68;;;;;;;16.22;64.96;97307.03;4986906;28;20046;-56
2022/07/20 04:04:25;;;;;;;8.10;4.88;;;;;;;16.35;64.51;97315.63;4986807;28;20126;-55
2022/07/20 04:06:51;;;;;;;11.95;5.13;;;;;;;16.44;64.01;97302.94;4986177;28;20405;-51
2022/07/20 04:09:43;;;;;;;10.07;5.10;;;;;;;16.77;62.67;97305.00;4985674;28;20034;-54
2022/07/20 04:12:05;;;;;;;10.07;5.25;;;;;;;16.99;62.76;97307.13;4986658;28;20534;-56
2022/07/20 04:14:31;;;;;;;8.95;5.85;;;;;;;16.79;63.66;97313.72;4986608;28;20524;-56
2022/07/20 04:16:57;;;;;;;10.88;5.22;;;;;;;16.85;63.06;97319.94;4986136;28;20058;-54
2022/07/20 04:19:24;;;;;;;14.07;6.15;;;;;;;16.83;63.00;97313.94;4986387;28;20050;-54
2022/07/20 04:21:54;;;;;;;7.78;5.13;;;;;;;16.92;62.69;97314.91;4984225;28;20049;-58
2022/07/20 04:24:21;;;;;;;8.43;5.40;;;;;;;17.08;61.75;97309.25;4986352;28;20047;-56
2022/07/20 04:26:48;;;;;;;8.40;4.90;;;;;;;17.14;61.44;97317.06;4984055;28;20465;-56
2022/07/20 04:29:15;;;;;;;9.55;5.88;;;;;;;17.23;61.26;97313.66;4983396;28;20077;-58
2022/07/20 04:31:41;;;;;;;10.18;5.47;;;;;;;17.50;60.08;97312.13;4984710;28;20559;-57
2022/07/20 04:34:08;;;;;;;7.35;4.78;;;;;;;17.53;60.62;97309.63;4979709;28;20054;-59
2022/07/20 04:36:34;;;;;;;9.27;5.20;;;;;;;17.58;60.30;97307.94;4985543;28;20059;-56
2022/07/20 04:39:01;;;;;;;11.57;5.05;;;;;;;17.55;61.06;97314.81;4983636;28;20051;-59
2022/07/20 04:41:28;;;;;;;9.25;5.18;;;;;;;17.53;61.09;97314.28;4983449;28;20057;-57
2022/07/20 04:43:54;;;;;;;7.95;4.97;;;;;;;17.54;61.00;97318.66;4984152;28;20039;-55
2022/07/20 04:46:21;;;;;;;7.80;4.88;;;;;;;17.59;60.89;97315.03;4983872;28;20085;-57
2022/07/20 04:48:47;;;;;;;10.65;4.90;;;;;;;17.60;60.76;97313.91;4984113;28;20564;-54
2022/07/20 04:51:14;;;;;;;8.98;5.95;;;;;;;17.66;60.88;97319.00;4983792;28;20049;-56
2022/07/20 04:53:41;;;;;;;7.93;4.68;;;;;;;17.71;61.33;97317.28;4983922;28;20082;-57
2022/07/20 04:56:09;;;;;;;9.15;5.47;;;;;;;17.87;60.24;97313.16;4984044;28;20069;-56
2022/07/20 04:58:36;;;;;;;11.15;5.00;;;;;;;18.02;60.05;97319.50;4984202;28;20050;-54
2022/07/20 05:01:02;;;;;;;13.98;5.50;;;;;;;18.16;60.37;97317.59;4983246;28;20038;-57
2022/07/20 05:03:30;;;;;;;8.80;4.97;;;;;;;18.27;61.55;97311.91;4983904;28;20053;-53
2022/07/20 05:05:56;;;;;;;9.43;5.65;;;;;;;18.38;60.33;97318.81;4983038;28;20057;-51
2022/07/20 05:08:23;;;;;;;8.65;5.57;;;;;;;18.34;62.90;97306.84;4984237;28;20117;-52
2022/07/20 05:10:49;;;;;;;8.13;5.00;;;;;;;18.46;61.64;97312.63;4983254;28;20050;-56
2022/07/20 05:13:16;;;;;;;9.75;5.80;;;;;;;18.72;58.67;97312.09;4983192;28;20557;-53
2022/07/20 05:15:42;;;;;;;14.25;5.65;;;;;;;19.02;57.32;97306.22;4984435;28;20097;-58
2022/07/20 05:18:09;;;;;;;8.98;5.03;;;;;;;19.36;56.84;97309.63;4984136;28;20046;-59
2022/07/20 05:20:35;;;;;;;10.85;5.88;;;;;;;19.45;58.99;97304.16;4984648;28;20309;-58
2022/07/20 05:23:02;;;;;;;9.32;5.38;;;;;;;19.52;59.71;97307.31;4988104;28;20049;-57
2022/07/20 05:25:28;;;;;;;7.78;5.18;;;;;;;19.52;57.90;97311.97;4987041;28;20072;-55
2022/07/20 05:27:55;;;;;;;7.38;4.45;;;;;;;19.55;57.73;97308.59;4987560;28;20129;-59
2022/07/20 05:30:21;;;;;;;8.82;5.35;;;;;;;19.66;57.50;97309.16;4986998;28;20100;-58
2022/07/20 05:32:48;;;;;;;7.65;4.90;;;;;;;19.77;56.86;97313.28;4987070;28;20054;-56
2022/07/20 05:35:14;;;;;;;8.68;4.88;;;;;;;19.93;56.73;97318.38;4987394;28;20046;-54
2022/07/20 05:37:41;;;;;;;7.72;5.47;;;;;;;20.07;57.89;97321.88;4987274;28;20058;-58
2022/07/20 05:40:08;;;;;;;9.23;6.00;;;;;;;20.20;57.04;97322.09;4987698;28;20042;-59
2022/07/20 05:42:35;;;;;;;9.32;5.13;;;;;;;20.31;55.25;97317.91;4986250;28;20101;-58
2022/07/20 05:45:01;;;;;;;11.27;4.88;;;;;;;20.45;54.63;97320.56;4986111;28;20632;-57
2022/07/20 05:47:28;;;;;;;11.02;6.50;;;;;;;20.74;55.45;97332.13;4986735;28;20516;-58
2022/07/20 05:49:57;;;;;;;9.85;5.47;;;;;;;20.85;54.36;97330.69;4985498;28;20046;-59
2022/07/20 05:52:23;;;;;;;8.70;5.22;;;;;;;21.00;54.13;97336.88;4987080;28;20050;-58
2022/07/20 05:54:50;;;;;;;7.57;5.25;;;;;;;21.12;54.04;97353.59;4997910;28;20081;-58
2022/07/20 05:57:16;;;;;;;7.38;4.93;;;;;;;21.23;52.98;97353.28;4987602;28;20046;-57
2022/07/20 05:59:43;;;;;;;10.63;5.20;;;;;;;21.43;53.01;97347.13;4986546;28;20166;-58
2022/07/20 06:02:10;;;;;;;8.52;5.30;;;;;;;21.61;51.55;97347.13;4986193;28;20057;-55
2022/07/20 06:04:37;;;;;;;9.32;5.15;;;;;;;21.75;51.92;97346.97;4986862;28;20041;-57
2022/07/20 06:07:04;;;;;;;9.10;5.35;;;;;;;21.91;49.49;97346.44;4991560;28;20254;-58
2022/07/20 06:09:31;;;;;;;9.30;5.05;;;;;;;22.17;48.51;97357.41;4995029;28;20069;-56
2022/07/20 06:11:58;;;;;;;9.25;5.10;;;;;;;22.35;48.26;97349.09;4986132;28;20661;-56
2022/07/20 06:14:25;;;;;;;10.52;5.22;;;;;;;22.53;48.25;97363.63;4988663;28;20392;-55
2022/07/20 06:16:51;;;;;;;7.43;5.28;;;;;;;22.70;47.73;97350.91;4996779;28;20054;-51
2022/07/20 06:19:18;;;;;;;8.43;5.72;;;;;;;22.88;47.18;97359.09;4986210;28;20326;-47
2022/07/20 06:21:45;;;;;;;9.60;4.95;;;;;;;23.06;46.36;97355.06;4985262;28;20418;-55
2022/07/20 06:24:11;;;;;;;9.05;5.22;;;;;;;23.26;46.20;97355.41;4987953;28;20042;-51
2022/07/20 06:26:43;;;;;;;11.35;5.05;;;;;;;23.46;45.51;97362.13;4988009;28;20038;-54
2022/07/20 06:29:10;;;;;;;10.90;5.60;;;;;;;23.59;45.20;97354.69;4985056;28;20038;-54
2022/07/20 06:31:36;;;;;;;9.90;4.75;;;;;;;23.74;45.12;97356.00;4986651;28;20120;-54
2022/07/20 06:34:23;;;;;;;10.38;5.53;;;;;;;24.10;44.47;97344.59;4985593;28;20136;-69
2022/07/20 06:36:49;;;;;;;11.07;5.72;;;;;;;24.54;43.27;97355.16;4982144;28;20612;-69
2022/07/20 06:39:16;;;;;;;10.05;5.30;;;;;;;24.94;41.77;97357.25;4984868;28;20046;-68
2022/07/20 06:41:42;;;;;;;9.13;4.93;;;;;;;25.28;40.87;97368.16;4984477;28;20073;-67
2022/07/20 06:44:09;;;;;;;8.57;4.88;;;;;;;25.71;38.35;97362.28;4983844;28;20054;-71
2022/07/20 06:46:36;;;;;;;8.18;4.97;;;;;;;25.91;37.61;97368.78;4985012;28;20539;-67
2022/07/20 06:49:02;;;;;;;9.05;5.13;;;;;;;26.08;38.22;97370.44;4985003;28;20057;-67
2022/07/20 06:51:29;;;;;;;9.50;4.60;;;;;;;26.00;37.98;97365.03;4985839;28;20386;-69
2022/07/20 06:53:55;;;;;;;7.50;4.40;;;;;;;25.89;38.12;97365.56;4988197;28;20051;-72
2022/07/20 06:56:22;;;;;;;11.43;5.90;;;;;;;26.01;37.89;97364.69;4987483;28;20409;-67
2022/07/20 06:58:49;;;;;;;10.30;4.82;;;;;;;26.17;37.57;97366.69;4987475;28;20047;-69
2022/07/20 07:01:16;;;;;;;11.63;4.85;;;;;;;26.20;36.92;97377.09;4987739;28;20038;-69
2022/07/20 07:03:43;;;;;;;9.82;4.63;;;;;;;26.14;37.02;97368.22;4984313;28;20120;-68
2022/07/20 07:06:09;;;;;;;12.15;5.80;;;;;;;26.11;37.24;97366.13;4985500;28;20170;-67
2022/07/20 07:08:36;;;;;;;12.63;5.50;;;;;;;26.39;36.39;97372.81;4985729;28;20054;-74
2022/07/20 07:11:03;;;;;;;13.65;5.10;;;;;;;26.57;35.87;97371.28;4984439;28;20042;-68
2022/07/20 07:13:29;;;;;;;7.85;4.65;;;;;;;26.48;35.84;97368.72;4986222;28;20454;-67
2022/07/20 07:15:56;;;;;;;7.80;4.38;;;;;;;26.38;36.61;97363.69;4984618;28;20054;-71
2022/07/20 07:18:22;;;;;;;8.85;4.82;;;;;;;26.28;36.30;97353.94;4985496;28;20050;-71
2022/07/20 07:20:49;;;;;;;7.68;4.50;;;;;;;26.27;35.85;97357.84;4984946;28;20054;-71
2022/07/20 07:23:15;;;;;;;9.95;4.57;;;;;;;26.35;36.40;97356.88;4985157;28;20424;-67
2022/07/20 07:25:42;;;;;;;7.82;4.35;;;;;;;26.40;35.93;97358.59;4987160;28;20490;-70
2022/07/20 07:28:08;;;;;;;7.47;4.35;;;;;;;26.50;35.43;97362.81;4987193;28;20046;-74
2022/07/20 07:30:35;;;;;;;9.70;5.13;;;;;;;26.88;34.78;97364.13;4987216;28;20046;-69
2022/07/20 07:33:01;;;;;;;7.53;4.35;;;;;;;27.16;33.72;97367.13;4987182;28;20042;-68
2022/07/20 07:35:28;;;;;;;8.25;4.72;;;;;;;27.31;33.35;97369.03;4986779;28;20050;-68
2022/07/20 07:37:55;;;;;;;9.65;5.22;;;;;;;27.49;33.08;97368.63;4986948;28;20054;-69
2022/07/20 07:40:21;;;;;;;7.80;4.70;;;;;;;27.45;33.33;97367.75;4986130;28;20046;-69
2022/07/20 07:42:48;;;;;;;7.35;4.63;;;;;;;27.71;33.13;97369.88;4986344;28;20563;-67
2022/07/20 07:45:15;;;;;;;9.23;4.47;;;;;;;27.72;33.30;97373.47;4987343;28;20113;-70
2022/07/20 07:47:43;;;;;;;11.38;5.80;;;;;;;28.16;33.23;97375.13;4986170;28;20394;-71
2022/07/20 07:50:10;;;;;;;10.45;4.43;;;;;;;28.39;33.02;97369.59;4987293;28;20046;-67
2022/07/20 07:52:37;;;;;;;7.07;4.47;;;;;;;28.38;33.65;97370.75;4986947;28;20541;-70
2022/07/20 07:55:21;;;;;;;10.10;4.85;;;;;;;28.39;33.58;97361.25;4986617;28;20042;-73
2022/07/20 07:57:48;;;;;;;9.38;5.60;;;;;;;28.35;33.72;97365.94;4984318;28;20061;-69
2022/07/20 08:00:15;;;;;;;7.90;4.32;;;;;;;28.40;33.66;97365.63;4983995;28;20038;-67
2022/07/20 08:02:41;;;;;;;9.15;4.70;;;;;;;28.65;33.02;97368.03;4984728;28;20055;-72
2022/07/20 08:05:08;;;;;;;8.88;4.78;;;;;;;28.98;31.75;97370.53;4984672;28;20074;-69
2022/07/20 08:07:36;;;;;;;9.23;4.90;;;;;;;29.17;32.12;97376.00;4984660;28;20061;-70
2022/07/20 08:10:04;;;;;;;9.65;5.28;;;;;;;29.31;31.80;97366.22;4984466;28;20246;-68
2022/07/20 08:12:31;;;;;;;8.40;4.80;;;;;;;29.28;32.36;97372.56;4984736;28;20514;-67
2022/07/20 08:14:57;;;;;;;8.75;5.07;;;;;;;29.23;31.70;97367.31;4984942;28;20057;-68
2022/07/20 08:17:24;;;;;;;10.55;4.65;;;;;;;29.23;31.75;97368.13;4984083;28;20057;-67
2022/07/20 08:19:50;;;;;;;11.30;4.28;;;;;;;29.20;31.07;97368.88;4984757;28;20081;-70
2022/07/20 08:22:18;;;;;;;9.70;4.80;;;;;;;29.18;31.35;97377.59;4984434;28;20109;-70
2022/07/20 08:24:45;;;;;;;7.45;4.30;;;;;;;29.25;30.04;97376.13;4984194;28;20046;-70
2022/07/20 08:27:12;;;;;;;6.97;4.28;;;;;;;29.41;29.80;97371.13;4984446;28;20564;-67
2022/07/20 08:29:38;;;;;;;9.40;4.18;;;;;;;29.53;29.68;97367.34;4984136;28;20057;-71
2022/07/20 08:32:05;;;;;;;11.05;4.78;;;;;;;29.83;30.22;97377.66;4984387;28;20047;-69
2022/07/20 08:34:32;;;;;;;8.38;3.92;;;;;;;30.02;29.02;97372.28;4984380;28;20469;-69
2022/07/20 08:36:58;;;;;;;8.02;4.00;;;;;;;30.07;29.41;97375.53;4984590;28;20046;-70
2022/07/20 08:39:25;;;;;;;7.13;4.22;;;;;;;30.24;28.77;97385.31;4984506;28;20112;-68
2022/07/20 08:41:52;;;;;;;7.90;4.25;;;;;;;30.36;28.46;97381.44;4983475;28;20053;-71
2022/07/20 08:44:19;;;;;;;8.02;4.10;;;;;;;30.47;28.53;97381.53;4984537;28;20318;-71
2022/07/20 08:46:45;;;;;;;10.23;3.78;;;;;;;30.54;28.07;97388.38;4983343;28;20038;-70
2022/07/20 08:49:13;;;;;;;7.28;3.80;;;;;;;30.76;27.00;97390.19;4983747;28;20054;-70
2022/07/20 08:51:41;;;;;;;7.25;4.38;;;;;;;30.88;26.72;97385.50;4984285;28;20066;-69
2022/07/20 08:54:08;;;;;;;10.50;4.57;;;;;;;30.82;27.02;97389.81;4985531;28;20326;-69
2022/07/20 08:56:35;;;;;;;7.38;4.60;;;;;;;30.88;27.64;97399.47;4987654;28;20053;-68
2022/07/20 08:59:01;;;;;;;10.10;4.47;;;;;;;30.72;27.40;97403.34;4987814;28;20057;-73
2022/07/20 09:01:28;;;;;;;7.13;3.88;;;;;;;30.74;27.50;97405.75;4987343;28;20042;-71
2022/07/20 09:04:07;;;;;;;7.28;4.50;;;;;;;30.79;28.35;97394.19;4987761;28;20133;-69
2022/07/20 09:06:49;;;;;;;7.22;4.50;;;;;;;30.83;28.31;97400.63;4987982;28;20165;-69
2022/07/20 09:09:18;;;;;;;11.48;4.53;;;;;;;30.80;27.73;97397.81;4988397;28;20449;-70
2022/07/20 09:11:46;;;;;;;9.48;4.35;;;;;;;30.84;27.44;97398.63;4987402;28;20065;-69
2022/07/20 09:14:13;;;;;;;7.25;4.65;;;;;;;30.87;27.88;97407.03;4988296;28;20057;-71
2022/07/20 09:16:46;;;;;;;10.48;4.43;;;;;;;30.87;27.52;97403.44;4987431;28;20440;-68
2022/07/20 09:19:17;;;;;;;6.15;4.35;;;;;;;30.81;28.04;97405.00;4987773;28;20100;-70
2022/07/20 09:21:47;;;;;;;6.85;4.45;;;;;;;30.97;28.83;97407.50;4987248;28;20046;-69
2022/07/20 09:24:19;;;;;;;7.97;4.13;;;;;;;31.13;28.38;97405.22;4987583;28;20046;-68
2022/07/20 09:27:03;;;;;;;13.82;4.72;;;;;;;31.13;28.20;97404.41;4987659;28;20058;-69
2022/07/20 09:29:29;;;;;;;6.65;3.85;;;;;;;31.09;28.51;97398.81;4987326;28;20042;-68
2022/07/20 09:32:02;;;;;;;9.13;4.57;;;;;;;31.17;29.07;97404.44;4987520;28;20050;-68
2022/07/20 09:34:29;;;;;;;6.35;4.38;;;;;;;31.07;28.21;97400.38;4987216;28;20054;-69
2022/07/20 09:36:56;;;;;;;8.68;4.22;;;;;;;31.04;28.39;97393.59;4987261;28;20685;-69
2022/07/20 09:39:22;;;;;;;11.63;4.88;;;;;;;31.05;28.28;97397.16;4985821;28;20058;-68
2022/07/20 09:41:53;;;;;;;9.50;4.50;;;;;;;30.93;28.86;97395.50;4986798;28;20405;-72
2022/07/20 09:44:22;;;;;;;12.45;6.90;;;;;;;30.87;29.08;97392.25;4987362;28;20046;-69
2022/07/20 09:46:49;;;;;;;8.30;4.50;;;;;;;31.02;29.37;97393.16;4986614;28;20053;-67
2022/07/20 09:49:16;;;;;;;8.55;4.20;;;;;;;31.02;29.40;97382.78;4987652;28;20390;-69
2022/07/20 09:51:48;;;;;;;8.43;4.93;;;;;;;31.18;29.17;97378.91;4986508;28;20548;-67
2022/07/20 09:54:17;;;;;;;10.10;4.60;;;;;;;31.21;28.91;97378.09;4987232;28;20057;-67
2022/07/20 09:56:48;;;;;;;6.43;4.45;;;;;;;31.23;28.90;97377.72;4987389;28;20544;-69
2022/07/20 09:59:16;;;;;;;9.30;4.32;;;;;;;31.18;28.47;97376.09;4986630;28;20058;-69
2022/07/20 10:01:46;;;;;;;7.95;4.28;;;;;;;31.20;28.91;97379.31;4986837;28;20042;-68
2022/07/20 10:04:14;;;;;;;12.10;4.97;;;;;;;31.21;28.68;97380.13;4973475;28;20050;-67
2022/07/20 10:06:43;;;;;;;5.25;3.88;;;;;;;31.23;29.29;97381.31;4986008;28;20213;-71
2022/07/20 10:09:11;;;;;;;8.27;4.45;;;;;;;31.27;28.59;97382.16;4986809;28;20046;-70
2022/07/20 10:11:37;;;;;;;9.52;4.93;;;;;;;31.46;28.62;97388.66;4986235;28;20046;-71
2022/07/20 10:14:05;;;;;;;9.15;4.93;;;;;;;31.49;28.92;97389.88;4986793;28;20046;-68
2022/07/20 10:16:47;;;;;;;7.13;4.50;;;;;;;31.53;29.01;97391.50;4986214;28;20050;-69
2022/07/20 10:19:14;;;;;;;6.68;4.60;;;;;;;31.79;29.13;97386.81;4987258;28;20431;-68
2022/07/20 10:21:41;;;;;;;7.25;4.90;;;;;;;31.90;29.33;97383.25;4986614;28;20031;-67
2022/07/20 10:24:13;;;;;;;8.27;4.63;;;;;;;31.91;29.34;97384.88;4986698;28;20109;-67
2022/07/20 10:26:40;;;;;;;8.65;4.85;;;;;;;31.85;29.03;97384.44;4987056;28;20054;-73
2022/07/20 10:29:06;;;;;;;8.18;4.82;;;;;;;32.07;29.37;97378.13;4986796;28;20054;-67
2022/07/20 10:31:57;;;;;;;8.10;4.88;;;;;;;31.96;29.29;97378.91;4986453;28;20093;-68
2022/07/20 10:34:35;;;;;;;8.75;5.55;;;;;;;31.80;29.02;97385.59;4986137;28;20499;-72
2022/07/20 10:37:20;;;;;;;9.15;5.32;;;;;;;31.83;29.88;97377.63;4987011;28;20046;-70
2022/07/20 10:39:47;;;;;;;9.13;5.03;;;;;;;32.14;29.95;97386.53;4986032;28;20057;-67
2022/07/20 10:42:30;;;;;;;8.43;5.47;;;;;;;32.01;30.74;97383.28;4986641;28;20034;-71
2022/07/20 10:45:22;;;;;;;11.65;5.60;;;;;;;31.94;30.32;97383.28;4986055;28;20050;-71
2022/07/20 10:47:56;;;;;;;8.48;5.15;;;;;;;32.12;30.98;97384.13;4984534;28;20058;-70
2022/07/20 10:50:28;;;;;;;10.65;5.75;;;;;;;32.21;31.36;97380.97;4985901;28;20053;-68
2022/07/20 10:52:59;;;;;;;11.73;6.20;;;;;;;32.36;31.77;97378.97;4988579;28;20043;-71
2022/07/20 10:55:34;;;;;;;12.93;6.18;;;;;;;32.50;31.28;97394.22;4985683;28;20061;-69
2022/07/20 10:58:06;;;;;;;10.35;6.10;;;;;;;32.43;31.74;97381.00;4984025;28;20038;-69
2022/07/20 11:00:44;;;;;;;13.30;6.55;;;;;;;32.60;31.25;97385.00;4987419;28;20054;-67
2022/07/20 11:03:11;;;;;;;9.77;6.30;;;;;;;32.66;31.48;97377.81;4987764;28;20424;-71
2022/07/20 11:05:38;;;;;;;14.13;6.72;;;;;;;32.81;31.17;97389.03;4987746;28;20448;-68
2022/07/20 11:08:09;;;;;;;10.10;7.07;;;;;;;32.90;31.01;97397.81;4987778;28;20065;-67
2022/07/20 11:10:37;;;;;;;10.77;6.93;;;;;;;33.01;30.97;97391.44;4987045;28;20104;-68
2022/07/20 11:13:07;;;;;;;10.35;6.75;;;;;;;32.82;30.89;97393.41;4987687;28;20065;-68
2022/07/20 11:15:36;;;;;;;14.18;7.13;;;;;;;32.80;30.66;97384.63;4987512;28;20050;-68
2022/07/20 11:18:04;;;;;;;11.35;7.28;;;;;;;32.78;30.85;97392.63;4987512;28;20046;-70
2022/07/20 11:20:30;;;;;;;8.50;6.63;;;;;;;32.81;30.48;97391.81;4987749;28;20046;-67
2022/07/20 11:22:57;;;;;;;11.18;7.97;;;;;;;32.82;31.04;97390.63;4987311;28;20046;-70
2022/07/20 11:25:24;;;;;;;10.63;6.47;;;;;;;32.92;30.78;97377.78;4983832;28;20524;-70
2022/07/20 11:28:01;;;;;;;11.18;7.30;;;;;;;33.09;30.34;97379.03;4985037;28;20576;-68
2022/07/20 11:30:34;;;;;;;12.60;7.35;;;;;;;33.32;29.86;97378.53;4984860;28;20380;-68
2022/07/20 11:33:01;;;;;;;9.73;8.07;;;;;;;33.41;29.86;97369.72;4984730;28;20132;-70
2022/07/20 11:35:28;;;;;;;13.63;7.82;;;;;;;33.17;30.11;97368.56;4984671;28;20050;-68
2022/07/20 11:37:55;;;;;;;11.02;7.55;;;;;;;33.38;29.96;97376.13;4984926;28;20058;-70